createdAt,value
2022-07-26T00:00:00.000Z,16.71
2022-07-26T00:15:00.000Z,15.65
2022-07-26T00:30:00.000Z,15.56
2022-07-26T00:45:00.000Z,15.73
2022-07-26T01:00:00.000Z,15.06
2022-07-26T01:15:00.000Z,16.05
2022-07-26T01:30:00.000Z,14.51
2022-07-26T01:45:00.000Z,14.56
2022-07-26T02:00:00.000Z,16.27
2022-07-26T02:15:00.000Z,16.45
2022-07-26T02:30:00.000Z,15.52
2022-07-26T02:45:00.000Z,13.19
2022-07-26T03:00:00.000Z,12.27
2022-07-26T03:15:00.000Z,10.66
2022-07-26T03:30:00.000Z,10.65
2022-07-26T03:45:00.000Z,9.84
2022-07-26T04:00:00.000Z,8.88
2022-07-26T04:15:00.000Z,8.71
2022-07-26T04:30:00.000Z,8.16
2022-07-26T04:45:00.000Z,7.58
2022-07-26T05:00:00.000Z,7.35
2022-07-26T05:15:00.000Z,7.32
2022-07-26T05:30:00.000Z,8.86
2022-07-26T05:45:00.000Z,10.58
2022-07-26T06:00:00.000Z,10.86
2022-07-26T06:15:00.000Z,7.85
2022-07-26T06:30:00.000Z,7.92
2022-07-26T06:45:00.000Z,8.13
2022-07-26T07:00:00.000Z,8.12
2022-07-26T07:15:00.000Z,9.88
2022-07-26T07:30:00.000Z,9.49
2022-07-26T07:45:00.000Z,10.06
2022-07-26T08:00:00.000Z,7.93
2022-07-26T08:15:00.000Z,11.86
2022-07-26T08:30:00.000Z,11.85
2022-07-26T08:45:00.000Z,10.01
2022-07-26T09:00:00.000Z,8.53
2022-07-26T09:15:00.000Z,7.94
2022-07-26T09:30:00.000Z,9.04
2022-07-26T09:45:00.000Z,7.24
2022-07-26T10:00:00.000Z,6.85
2022-07-26T10:15:00.000Z,6.51
2022-07-26T10:30:00.000Z,6.15
2022-07-26T10:45:00.000Z,7.14
2022-07-26T11:00:00.000Z,7.27
2022-07-26T11:15:00.000Z,7.71
2022-07-26T11:30:00.000Z,7.02
2022-07-26T11:45:00.000Z,5.6
2022-07-26T12:00:00.000Z,4.44
2022-07-26T12:15:00.000Z,4.14
2022-07-26T12:30:00.000Z,4.07
2022-07-26T12:45:00.000Z,3.98
2022-07-26T13:00:00.000Z,3.69
2022-07-26T13:15:00.000Z,4.02
2022-07-26T13:30:00.000Z,4.19
2022-07-26T13:45:00.000Z,2.89
2022-07-26T14:00:00.000Z,2.62
2022-07-26T14:15:00.000Z,1.81
2022-07-26T14:30:00.000Z,1.94
2022-07-26T14:45:00.000Z,2.14
2022-07-26T15:00:00.000Z,3.26
2022-07-26T15:15:00.000Z,4.22
2022-07-26T15:30:00.000Z,4.16
2022-07-26T15:45:00.000Z,4.34
2022-07-26T16:00:00.000Z,6.11
2022-07-26T16:15:00.000Z,4.01
2022-07-26T16:30:00.000Z,5.11
2022-07-26T16:45:00.000Z,4.29
2022-07-26T17:00:00.000Z,4.85
2022-07-26T17:15:00.000Z,4.74
2022-07-26T17:30:00.000Z,4.24
2022-07-26T17:45:00.000Z,4.21
2022-07-26T18:00:00.000Z,5.01
2022-07-26T18:15:00.000Z,5.55
2022-07-26T18:30:00.000Z,5.96
2022-07-26T18:45:00.000Z,5.49
2022-07-26T19:00:00.000Z,4.91
2022-07-26T19:15:00.000Z,5.06
2022-07-26T19:30:00.000Z,6.07
2022-07-26T19:45:00.000Z,6.35
2022-07-26T20:00:00.000Z,7.09
2022-07-26T20:15:00.000Z,5.82
2022-07-26T20:30:00.000Z,6.66
2022-07-26T20:45:00.000Z,6.81
2022-07-26T21:00:00.000Z,6.15
2022-07-26T21:15:00.000Z,5.74
2022-07-26T21:30:00.000Z,4.66
2022-07-26T21:45:00.000Z,5.21
2022-07-26T22:00:00.000Z,5.51
2022-07-26T22:15:00.000Z,5.44
2022-07-26T22:30:00.000Z,6.74
2022-07-26T22:45:00.000Z,5.21
2022-07-26T23:00:00.000Z,6.89
2022-07-26T23:15:00.000Z,6.05
2022-07-26T23:30:00.000Z,6.86
2022-07-26T23:45:00.000Z,6.76
